Accueil
METAR-TAF:

METAR-TAF

Aéroports :

Cassel, Allemagne

latitude: 51-24N, longitude: 009-23E, altitude: 277 m

Observation

Le bulletin a été fait il y a 40 minutes, à 05:50 UTC
Vent 7 kt de ouest/nord-ouest
Température 19°C
Humidité 78%
Pression 1018 hPa
Visibilité 10 km ou plus
Quelques nuages à une hauteur de 2200 ft
Ciel couvert à une hauteur de 3700 ft

METAR: EDVK 200550Z 29007KT 9999 FEW022 OVC037 19/15 Q1018

Heure: 08:30 (06:30 UTC)

Prévision

Le bulletin a été fait il y a 1 heure et 30 minutes, à 05:00 UTC
Prévision valable du 20 à 06 UTC au 20 à 15 UTC
Vent 3 kt de direction variable
Visibilité 10 km ou plus
Nuages fragmentés à une hauteur de 3500 ft
Evoluant progressivement
du 20 à 06 UTC au 20 à 08 UTC
Vent 8 kt de ouest

TAF: EDVK 200500Z 2006/2015 VRB03KT 9999 BKN035 BECMG 2006/2008 28008KT

Observations et prévisions météorologiques de plus de 4000 aéroports (messages METAR et TAF).

Les stations disponibles sont représentées par des disques jaunes et rouges sur la carte.

Passer la souris dessus pour voir le nom de la station.

Cliquer dessus pour voir les observations et prévisions météorologiques.

Pour changer de carte: cliquez sur les boutons verts avec une croix noire pour zoomer, sur le bouton vert avec un tiret pour effectuer un zoom arrière, ou sur les flèches vertes pour les cartes adjacentes.


METAR-TAF: